»·PEaware :: N198JT KOTH-KFOT

N198JT :: KOTH-KFOT

FLIGHT INFORMATION

Flight Status: Arrived
Operator: Privately registered:
United States
More flights under this callsign
Pilot: Jeremy T. (18871)
Aircraft: PIPER PA-24 COMMANCHE
(PA24)
More flights by this aircraft type
Origin: KOTH North Bend Mun
United States
Destination: KFOT Rohnerville
United States
More flights between these airports :: More routes between these airports
Route: +OTH7 LEDGE CEC KNEES
File this flight plan on PilotEdge
Remarks:
Altitude:
(Current/Filed)
8,000ft
Speed:
(Current/Filed)
150kts
Departed: 27-Mar-20 05:42 PM
Arrived: 27-Mar-20 07:03 PM
Distance/Time
Traveled:
172nm/1:20
Distance/Time
To Go:
Arrived

Flight Plot

Page will automatically refresh every two minutes.


Map Options




Map Legend


Flown Route
Filed Route
Departure Airport
Arrival Airport
Navaid (VOR, NDB)
Fix

Horizontal Profiles

Position Reports

Time Latitude Longitude Heading Altitude Ground
Speed
27-Mar-20 17:10 43.416166 -124.246236 240 11ft 0kts
27-Mar-20 17:11 43.416166 -124.246237 240 11ft 0kts
27-Mar-20 17:12 43.416165 -124.246238 240 11ft 0kts
27-Mar-20 17:13 43.416165 -124.246239 240 11ft 0kts
27-Mar-20 17:14 43.416165 -124.246239 240 11ft 0kts
27-Mar-20 17:15 43.416164 -124.246240 240 11ft 0kts
27-Mar-20 17:16 43.416163 -124.246243 240 11ft 0kts
27-Mar-20 17:17 43.416161 -124.246248 240 11ft 0kts
27-Mar-20 17:20 43.416157 -124.246259 240 11ft 0kts
27-Mar-20 17:21 43.416155 -124.246262 240 11ft 0kts
27-Mar-20 17:21 43.416154 -124.246265 240 11ft 0kts
27-Mar-20 17:23 43.416153 -124.246269 240 11ft 0kts
27-Mar-20 17:24 43.416151 -124.246273 240 11ft 0kts
27-Mar-20 17:24 43.416150 -124.246276 240 11ft 0kts
27-Mar-20 17:25 43.416148 -124.246280 240 11ft 0kts
27-Mar-20 17:27 43.416146 -124.246284 240 11ft 0kts
27-Mar-20 17:27 43.416145 -124.246287 240 11ft 0kts
27-Mar-20 17:28 43.416144 -124.246291 240 11ft 0kts
27-Mar-20 17:29 43.416142 -124.246295 240 11ft 0kts
27-Mar-20 17:30 43.416136 -124.246309 240 11ft 0kts
27-Mar-20 17:31 43.416135 -124.246313 240 11ft 0kts
27-Mar-20 17:32 43.416133 -124.246317 240 11ft 0kts
27-Mar-20 17:33 43.416132 -124.246320 240 11ft 0kts
27-Mar-20 17:34 43.416245 -124.246519 24 11ft 6kts
27-Mar-20 17:35 43.419329 -124.246667 59 11ft 0kts
27-Mar-20 17:36 43.420602 -124.243471 59 11ft 12kts
27-Mar-20 17:37 43.422478 -124.240320 343 11ft 9kts
27-Mar-20 17:38 43.422533 -124.240359 321 11ft 0kts
27-Mar-20 17:39 43.422537 -124.240363 321 11ft 0kts
27-Mar-20 17:40 43.422543 -124.240370 321 11ft 0kts
27-Mar-20 17:41 43.417364 -124.254359 238 295ft 103kts
27-Mar-20 17:42 43.420832 -124.294192 297 1553ft 123kts
27-Mar-20 17:43 43.434303 -124.272718 129 2452ft 108kts
27-Mar-20 17:44 43.427281 -124.230957 108 3392ft 114kts
27-Mar-20 17:45 43.420809 -124.189866 109 4127ft 123kts
27-Mar-20 17:46 43.401608 -124.164460 189 4712ft 104kts
27-Mar-20 17:47 43.372493 -124.164258 186 5442ft 104kts
27-Mar-20 17:48 43.342984 -124.164758 187 6107ft 107kts
27-Mar-20 17:49 43.312811 -124.165394 187 6724ft 110kts
27-Mar-20 17:50 43.282053 -124.165946 187 7292ft 111kts
27-Mar-20 17:51 43.250604 -124.166958 187 7797ft 113kts
27-Mar-20 17:52 43.216799 -124.169372 189 7904ft 133kts
27-Mar-20 17:53 43.180253 -124.173432 190 7962ft 131kts
27-Mar-20 17:54 43.143406 -124.177595 189 7948ft 133kts
27-Mar-20 17:55 43.106363 -124.181909 189 7944ft 133kts
27-Mar-20 17:56 43.069339 -124.186297 189 7942ft 133kts
27-Mar-20 17:57 43.032153 -124.189612 187 7941ft 134kts
27-Mar-20 17:58 42.994683 -124.191206 185 7941ft 134kts
27-Mar-20 17:59 42.956940 -124.190333 183 7939ft 135kts
27-Mar-20 18:00 42.919255 -124.190074 184 7939ft 135kts
27-Mar-20 18:01 42.881608 -124.190155 184 7939ft 135kts
27-Mar-20 18:02 42.843734 -124.190609 184 7939ft 136kts
27-Mar-20 18:03 42.806017 -124.191291 185 7941ft 135kts
27-Mar-20 18:04 42.768076 -124.192779 185 7942ft 136kts
27-Mar-20 18:05 42.730210 -124.194482 185 7943ft 136kts
27-Mar-20 18:06 42.692251 -124.196173 185 7947ft 136kts
27-Mar-20 18:07 42.654195 -124.198172 185 7949ft 136kts
27-Mar-20 18:08 42.616101 -124.200302 185 7952ft 137kts
27-Mar-20 18:09 42.578001 -124.202315 185 7954ft 137kts
27-Mar-20 18:10 42.539793 -124.204670 185 7955ft 137kts
27-Mar-20 18:11 42.501198 -124.207087 185 7957ft 143kts
27-Mar-20 18:12 42.460802 -124.209744 184 7968ft 145kts
27-Mar-20 18:13 42.420013 -124.211500 184 7968ft 146kts
27-Mar-20 18:14 42.379226 -124.213620 185 7975ft 147kts
27-Mar-20 18:15 42.338147 -124.215697 184 7977ft 148kts
27-Mar-20 18:16 42.296911 -124.217879 184 7979ft 148kts
27-Mar-20 18:17 42.255596 -124.220082 184 7986ft 148kts
27-Mar-20 18:18 42.214184 -124.222325 184 7991ft 148kts
27-Mar-20 18:19 42.172809 -124.224579 184 7996ft 148kts
27-Mar-20 18:20 42.131404 -124.227002 184 7999ft 149kts
27-Mar-20 18:21 42.089901 -124.229541 184 8002ft 149kts
27-Mar-20 18:22 42.048291 -124.231423 183 8003ft 149kts
27-Mar-20 18:23 42.006731 -124.233026 183 8003ft 149kts
27-Mar-20 18:24 41.965046 -124.234790 183 8002ft 150kts
27-Mar-20 18:25 41.923219 -124.236640 183 8001ft 150kts
27-Mar-20 18:26 41.881460 -124.238506 183 8000ft 150kts
27-Mar-20 18:27 41.839571 -124.240362 183 8002ft 150kts
27-Mar-20 18:28 41.797899 -124.242119 183 8003ft 150kts
27-Mar-20 18:29 41.756199 -124.238763 172 8004ft 151kts
27-Mar-20 18:30 41.714964 -124.226709 169 8004ft 151kts
27-Mar-20 18:31 41.673791 -124.214154 168 8002ft 152kts
27-Mar-20 18:32 41.632604 -124.200953 169 8001ft 152kts
27-Mar-20 18:33 41.591397 -124.187914 169 8001ft 152kts
27-Mar-20 18:34 41.550194 -124.174693 169 8000ft 152kts
27-Mar-20 18:35 41.508945 -124.161590 169 7999ft 152kts
27-Mar-20 18:36 41.467691 -124.148446 169 7999ft 152kts
27-Mar-20 18:37 41.426463 -124.135319 169 7998ft 152kts
27-Mar-20 18:38 41.384889 -124.122987 170 7998ft 152kts
27-Mar-20 18:39 41.343460 -124.110793 170 7997ft 153kts
27-Mar-20 18:40 41.301841 -124.098615 170 7997ft 153kts
27-Mar-20 18:41 41.260122 -124.086348 170 7994ft 153kts
27-Mar-20 18:42 41.218422 -124.074248 170 7996ft 153kts
27-Mar-20 18:43 41.176631 -124.061963 170 7998ft 153kts
27-Mar-20 18:44 41.134800 -124.049693 170 7985ft 154kts
27-Mar-20 18:45 41.092745 -124.037397 170 7983ft 154kts
27-Mar-20 18:46 41.050813 -124.025574 171 7984ft 154kts
27-Mar-20 18:47 41.008544 -124.014848 173 7983ft 154kts
27-Mar-20 18:48 40.965897 -124.006863 174 7983ft 154kts
27-Mar-20 18:49 40.923146 -123.999199 173 7982ft 155kts
27-Mar-20 18:50 40.881715 -123.991824 173 7680ft 159kts
27-Mar-20 18:51 40.837243 -123.984543 174 6824ft 162kts
27-Mar-20 18:52 40.801237 -124.013343 224 5885ft 153kts
27-Mar-20 18:53 40.770637 -124.052572 225 5079ft 152kts
27-Mar-20 18:54 40.738353 -124.085106 210 4765ft 132kts
27-Mar-20 18:55 40.707001 -124.109292 197 4705ft 134kts
27-Mar-20 18:56 40.668263 -124.109979 181 4246ft 140kts
27-Mar-20 18:57 40.629655 -124.109397 179 3681ft 135kts
27-Mar-20 18:58 40.594608 -124.116064 196 2796ft 119kts
27-Mar-20 18:59 40.564275 -124.107878 135 1596ft 118kts
27-Mar-20 19:00 40.543560 -124.099920 257 842ft 79kts
27-Mar-20 19:01 40.549483 -124.125069 306 445ft 74kts
27-Mar-20 19:02 40.556590 -124.137229 307 358ft 20kts
27-Mar-20 19:03 40.557573 -124.137794 97 358ft 0kts
27-Mar-20 19:04 40.555234 -124.133715 127 358ft 22kts
27-Mar-20 19:05 40.554904 -124.131745 309 358ft 0kts
27-Mar-20 19:07 40.554905 -124.131747 309 358ft 0kts

Navigation Log

Ident Type
Flight plan parsing failed, navigation log unavailable